Wheeler Sack Army Air Field
KGTB : now visible

Airfield :











YOU CAN JOIN US ON...

 
LOGIN :

Register | Disclaimer

   EN    FR    IT 

 









Legend :    VFR   Marginal VFR   IFR   Intensive IFR   Very Intensive IFR
Visi :
Ceiling :
>= 8 km
>= 3000ft
5 to 8 km
1000 to 3000 ft
1500m to 5 km
500 to 1000 ft
800 to 1500m
200 to 500 ft
< 800m
< 200 ft
Symbols :   Thunderstorms  Fog  Heavy snow  Heavy precipitations  Wind > 20 kt






- Airport Elevation : 688 ft


KGTB - Wheeler Sack Army Air Field

CURRENT METAR :
  • 271755Z AUTO 13009KT 10SM -RA FEW033 SCT060 BKN075 OVC090 05/M02 A2954 RMK AO2 RAB53 SLP008 P0000 60000 T00511025 10055 20033 57048

EXPIRED METARs :
  • 271655Z AUTO 15009KT 10SM BKN110 OVC140 05/M03 A2960 RMK AO2 SLP028 T00541034
  • 271555Z AUTO 14009KT 10SM OVC160 05/M03 A2964 RMK AO2 SLP041 T00471029

Expired Forecast.
KZBW FIR / North America



MET'MAP, your aeronautical weather chart ! - Copyright ORBIFLY December 2007 - Disclaimer

ORBIFLY MET'MAP TEAM :

Programming & Development : Alexandra Zaïnal
Original concept : Baudouin d'Aumeries
Technical & hardware support : Manuel Goepfert
Assistance : Marc-Olivier Méhu




SOURCES & CREDITS :

   NOAA       Earth
Advisory